sensor_id;sensor_type;location;lat;lon;timestamp;P1;durP1;ratioP1;P2;durP2;ratioP2
20861;SDS011;10591;52.532;13.348;2023-07-20T00:00:59;4.92;;;4.53;;
20861;SDS011;10591;52.532;13.348;2023-07-20T00:03:32;5.58;;;4.40;;
20861;SDS011;10591;52.532;13.348;2023-07-20T00:06:05;7.00;;;5.08;;
20861;SDS011;10591;52.532;13.348;2023-07-20T00:08:35;5.75;;;5.15;;
20861;SDS011;10591;52.532;13.348;2023-07-20T00:11:09;5.58;;;5.17;;
20861;SDS011;10591;52.532;13.348;2023-07-20T00:13:43;5.53;;;5.03;;
20861;SDS011;10591;52.532;13.348;2023-07-20T00:16:14;6.22;;;5.45;;
20861;SDS011;10591;52.532;13.348;2023-07-20T00:18:46;5.28;;;4.87;;
20861;SDS011;10591;52.532;13.348;2023-07-20T00:21:19;6.17;;;5.55;;
20861;SDS011;10591;52.532;13.348;2023-07-20T00:23:51;5.87;;;5.30;;
20861;SDS011;10591;52.532;13.348;2023-07-20T00:26:22;6.15;;;5.62;;
20861;SDS011;10591;52.532;13.348;2023-07-20T00:28:53;6.15;;;5.55;;
20861;SDS011;10591;52.532;13.348;2023-07-20T00:31:24;6.22;;;5.70;;
20861;SDS011;10591;52.532;13.348;2023-07-20T00:33:55;7.00;;;6.40;;
20861;SDS011;10591;52.532;13.348;2023-07-20T00:36:26;7.28;;;6.67;;
20861;SDS011;10591;52.532;13.348;2023-07-20T00:38:57;8.35;;;7.08;;
20861;SDS011;10591;52.532;13.348;2023-07-20T00:41:27;7.47;;;6.62;;
20861;SDS011;10591;52.532;13.348;2023-07-20T00:43:58;7.83;;;7.12;;
20861;SDS011;10591;52.532;13.348;2023-07-20T00:46:29;6.78;;;6.08;;
20861;SDS011;10591;52.532;13.348;2023-07-20T00:49:01;6.35;;;5.80;;
20861;SDS011;10591;52.532;13.348;2023-07-20T00:51:33;6.62;;;5.92;;
20861;SDS011;10591;52.532;13.348;2023-07-20T00:54:04;7.00;;;6.40;;
20861;SDS011;10591;52.532;13.348;2023-07-20T00:56:35;7.85;;;7.00;;
20861;SDS011;10591;52.532;13.348;2023-07-20T00:59:06;7.72;;;6.90;;
20861;SDS011;10591;52.532;13.348;2023-07-20T01:01:37;9.30;;;8.43;;
20861;SDS011;10591;52.532;13.348;2023-07-20T01:04:09;8.53;;;7.58;;
20861;SDS011;10591;52.532;13.348;2023-07-20T01:06:48;8.18;;;7.37;;
20861;SDS011;10591;52.532;13.348;2023-07-20T01:09:31;8.33;;;7.60;;
20861;SDS011;10591;52.532;13.348;2023-07-20T01:12:26;8.08;;;7.37;;
20861;SDS011;10591;52.532;13.348;2023-07-20T01:14:56;8.70;;;7.78;;
20861;SDS011;10591;52.532;13.348;2023-07-20T01:17:32;7.85;;;7.12;;
20861;SDS011;10591;52.532;13.348;2023-07-20T01:20:03;7.15;;;6.55;;
20861;SDS011;10591;52.532;13.348;2023-07-20T01:30:58;7.62;;;7.10;;
20861;SDS011;10591;52.532;13.348;2023-07-20T01:33:47;6.85;;;6.25;;
20861;SDS011;10591;52.532;13.348;2023-07-20T01:36:20;7.65;;;6.95;;
20861;SDS011;10591;52.532;13.348;2023-07-20T01:38:55;7.65;;;6.90;;
20861;SDS011;10591;52.532;13.348;2023-07-20T01:41:28;6.97;;;6.47;;
20861;SDS011;10591;52.532;13.348;2023-07-20T01:44:04;6.97;;;6.37;;
20861;SDS011;10591;52.532;13.348;2023-07-20T01:46:37;7.62;;;6.92;;
20861;SDS011;10591;52.532;13.348;2023-07-20T01:49:09;7.35;;;6.75;;
20861;SDS011;10591;52.532;13.348;2023-07-20T01:51:42;8.00;;;7.15;;
20861;SDS011;10591;52.532;13.348;2023-07-20T01:54:16;7.55;;;6.80;;
20861;SDS011;10591;52.532;13.348;2023-07-20T01:56:46;7.20;;;6.50;;
20861;SDS011;10591;52.532;13.348;2023-07-20T01:59:17;7.05;;;6.53;;
20861;SDS011;10591;52.532;13.348;2023-07-20T02:01:48;7.67;;;7.03;;
20861;SDS011;10591;52.532;13.348;2023-07-20T02:04:21;8.58;;;7.78;;
20861;SDS011;10591;52.532;13.348;2023-07-20T02:06:52;7.62;;;7.03;;
20861;SDS011;10591;52.532;13.348;2023-07-20T02:09:26;8.23;;;7.53;;
20861;SDS011;10591;52.532;13.348;2023-07-20T02:11:56;8.00;;;7.30;;
20861;SDS011;10591;52.532;13.348;2023-07-20T02:14:29;8.20;;;7.45;;
20861;SDS011;10591;52.532;13.348;2023-07-20T02:17:04;8.40;;;7.60;;
20861;SDS011;10591;52.532;13.348;2023-07-20T02:19:35;8.05;;;7.25;;
20861;SDS011;10591;52.532;13.348;2023-07-20T02:22:08;8.18;;;7.45;;
20861;SDS011;10591;52.532;13.348;2023-07-20T02:24:40;9.00;;;8.20;;
20861;SDS011;10591;52.532;13.348;2023-07-20T02:27:11;8.63;;;7.83;;
20861;SDS011;10591;52.532;13.348;2023-07-20T02:29:42;9.98;;;9.18;;
20861;SDS011;10591;52.532;13.348;2023-07-20T02:32:14;9.05;;;8.35;;
20861;SDS011;10591;52.532;13.348;2023-07-20T02:34:45;8.73;;;7.90;;
20861;SDS011;10591;52.532;13.348;2023-07-20T02:37:19;9.70;;;8.83;;
20861;SDS011;10591;52.532;13.348;2023-07-20T02:39:50;10.98;;;9.93;;
20861;SDS011;10591;52.532;13.348;2023-07-20T02:42:20;10.03;;;8.98;;
20861;SDS011;10591;52.532;13.348;2023-07-20T02:44:53;10.03;;;9.13;;
20861;SDS011;10591;52.532;13.348;2023-07-20T02:47:24;11.00;;;9.90;;
20861;SDS011;10591;52.532;13.348;2023-07-20T02:49:57;10.82;;;9.55;;
20861;SDS011;10591;52.532;13.348;2023-07-20T02:52:29;10.28;;;9.20;;
20861;SDS011;10591;52.532;13.348;2023-07-20T02:55:01;9.83;;;9.03;;
20861;SDS011;10591;52.532;13.348;2023-07-20T02:57:33;10.18;;;9.20;;
20861;SDS011;10591;52.532;13.348;2023-07-20T03:00:04;10.65;;;9.63;;
20861;SDS011;10591;52.532;13.348;2023-07-20T03:02:40;11.55;;;10.38;;
20861;SDS011;10591;52.532;13.348;2023-07-20T03:05:14;12.10;;;10.90;;
20861;SDS011;10591;52.532;13.348;2023-07-20T03:07:50;11.55;;;10.55;;
20861;SDS011;10591;52.532;13.348;2023-07-20T03:10:21;11.73;;;10.35;;
20861;SDS011;10591;52.532;13.348;2023-07-20T03:12:52;12.58;;;11.28;;
20861;SDS011;10591;52.532;13.348;2023-07-20T03:15:23;11.48;;;10.38;;
20861;SDS011;10591;52.532;13.348;2023-07-20T03:17:57;11.40;;;10.40;;
20861;SDS011;10591;52.532;13.348;2023-07-20T03:20:30;11.12;;;10.13;;
20861;SDS011;10591;52.532;13.348;2023-07-20T03:23:03;11.93;;;10.93;;
20861;SDS011;10591;52.532;13.348;2023-07-20T03:25:35;11.93;;;10.75;;
20861;SDS011;10591;52.532;13.348;2023-07-20T03:28:07;12.03;;;10.85;;
20861;SDS011;10591;52.532;13.348;2023-07-20T03:30:40;12.50;;;10.93;;
20861;SDS011;10591;52.532;13.348;2023-07-20T03:33:11;12.23;;;10.95;;
20861;SDS011;10591;52.532;13.348;2023-07-20T03:35:45;11.70;;;10.70;;
20861;SDS011;10591;52.532;13.348;2023-07-20T03:38:20;12.30;;;11.20;;
20861;SDS011;10591;52.532;13.348;2023-07-20T03:40:54;12.75;;;11.48;;
20861;SDS011;10591;52.532;13.348;2023-07-20T03:43:32;12.15;;;11.05;;
20861;SDS011;10591;52.532;13.348;2023-07-20T03:46:04;11.18;;;10.18;;
20861;SDS011;10591;52.532;13.348;2023-07-20T03:48:38;10.85;;;9.88;;
20861;SDS011;10591;52.532;13.348;2023-07-20T03:51:09;10.70;;;9.80;;
20861;SDS011;10591;52.532;13.348;2023-07-20T03:53:42;10.82;;;9.83;;
20861;SDS011;10591;52.532;13.348;2023-07-20T03:56:13;10.60;;;9.60;;
20861;SDS011;10591;52.532;13.348;2023-07-20T03:58:47;10.82;;;9.83;;
20861;SDS011;10591;52.532;13.348;2023-07-20T04:01:18;10.90;;;10.00;;
20861;SDS011;10591;52.532;13.348;2023-07-20T04:03:52;11.20;;;10.10;;
20861;SDS011;10591;52.532;13.348;2023-07-20T04:06:25;10.43;;;9.43;;
20861;SDS011;10591;52.532;13.348;2023-07-20T04:08:56;10.72;;;9.83;;
20861;SDS011;10591;52.532;13.348;2023-07-20T04:11:27;10.50;;;9.60;;
20861;SDS011;10591;52.532;13.348;2023-07-20T04:13:57;10.48;;;9.58;;
20861;SDS011;10591;52.532;13.348;2023-07-20T04:16:28;11.08;;;9.93;;
20861;SDS011;10591;52.532;13.348;2023-07-20T04:18:59;11.00;;;10.00;;
20861;SDS011;10591;52.532;13.348;2023-07-20T04:21:32;11.30;;;10.30;;
20861;SDS011;10591;52.532;13.348;2023-07-20T04:24:03;10.10;;;9.30;;
20861;SDS011;10591;52.532;13.348;2023-07-20T04:26:36;10.82;;;9.93;;
20861;SDS011;10591;52.532;13.348;2023-07-20T04:29:08;11.35;;;10.35;;
20861;SDS011;10591;52.532;13.348;2023-07-20T04:31:39;10.35;;;9.45;;
20861;SDS011;10591;52.532;13.348;2023-07-20T04:34:10;11.00;;;10.00;;
20861;SDS011;10591;52.532;13.348;2023-07-20T04:36:42;10.58;;;9.68;;
20861;SDS011;10591;52.532;13.348;2023-07-20T04:39:15;12.30;;;10.53;;
20861;SDS011;10591;52.532;13.348;2023-07-20T04:41:47;11.63;;;10.43;;
20861;SDS011;10591;52.532;13.348;2023-07-20T04:44:18;10.80;;;9.80;;
20861;SDS011;10591;52.532;13.348;2023-07-20T04:46:49;11.05;;;10.05;;
20861;SDS011;10591;52.532;13.348;2023-07-20T04:49:23;10.55;;;9.65;;
20861;SDS011;10591;52.532;13.348;2023-07-20T04:51:53;10.30;;;9.40;;
20861;SDS011;10591;52.532;13.348;2023-07-20T04:54:24;10.48;;;9.48;;
20861;SDS011;10591;52.532;13.348;2023-07-20T04:56:59;10.50;;;9.50;;
20861;SDS011;10591;52.532;13.348;2023-07-20T04:59:30;10.60;;;9.63;;
20861;SDS011;10591;52.532;13.348;2023-07-20T05:02:02;9.33;;;8.53;;
20861;SDS011;10591;52.532;13.348;2023-07-20T05:04:34;9.35;;;8.45;;
20861;SDS011;10591;52.532;13.348;2023-07-20T05:07:08;9.30;;;8.40;;
20861;SDS011;10591;52.532;13.348;2023-07-20T05:09:39;9.48;;;8.68;;
20861;SDS011;10591;52.532;13.348;2023-07-20T05:12:10;9.20;;;8.40;;
20861;SDS011;10591;52.532;13.348;2023-07-20T05:14:41;9.03;;;8.20;;
20861;SDS011;10591;52.532;13.348;2023-07-20T05:17:32;8.18;;;7.37;;
20861;SDS011;10591;52.532;13.348;2023-07-20T05:20:05;8.90;;;8.10;;
20861;SDS011;10591;52.532;13.348;2023-07-20T05:22:39;8.08;;;7.37;;
20861;SDS011;10591;52.532;13.348;2023-07-20T05:25:11;8.23;;;7.30;;
20861;SDS011;10591;52.532;13.348;2023-07-20T05:27:42;8.83;;;8.03;;
20861;SDS011;10591;52.532;13.348;2023-07-20T05:30:18;8.20;;;7.53;;
20861;SDS011;10591;52.532;13.348;2023-07-20T05:32:49;7.92;;;7.30;;
20861;SDS011;10591;52.532;13.348;2023-07-20T05:35:21;7.60;;;6.95;;
20861;SDS011;10591;52.532;13.348;2023-07-20T05:37:52;7.47;;;6.80;;
20861;SDS011;10591;52.532;13.348;2023-07-20T05:40:23;7.22;;;6.62;;
20861;SDS011;10591;52.532;13.348;2023-07-20T05:42:56;8.08;;;7.28;;
20861;SDS011;10591;52.532;13.348;2023-07-20T05:45:27;6.95;;;6.28;;
20861;SDS011;10591;52.532;13.348;2023-07-20T05:47:59;7.37;;;6.75;;
20861;SDS011;10591;52.532;13.348;2023-07-20T05:50:32;7.25;;;6.55;;
20861;SDS011;10591;52.532;13.348;2023-07-20T05:53:03;7.60;;;6.90;;
20861;SDS011;10591;52.532;13.348;2023-07-20T05:55:37;7.80;;;7.10;;
20861;SDS011;10591;52.532;13.348;2023-07-20T05:58:09;7.37;;;6.70;;
20861;SDS011;10591;52.532;13.348;2023-07-20T06:00:41;7.37;;;6.55;;
20861;SDS011;10591;52.532;13.348;2023-07-20T06:03:13;8.20;;;7.47;;
20861;SDS011;10591;52.532;13.348;2023-07-20T06:05:45;7.50;;;6.78;;
20861;SDS011;10591;52.532;13.348;2023-07-20T06:08:17;8.33;;;7.53;;
20861;SDS011;10591;52.532;13.348;2023-07-20T06:10:59;8.45;;;7.75;;
20861;SDS011;10591;52.532;13.348;2023-07-20T06:13:30;9.23;;;7.60;;
20861;SDS011;10591;52.532;13.348;2023-07-20T06:16:01;7.78;;;7.08;;
20861;SDS011;10591;52.532;13.348;2023-07-20T06:18:36;8.18;;;7.37;;
20861;SDS011;10591;52.532;13.348;2023-07-20T06:21:07;7.65;;;6.85;;
20861;SDS011;10591;52.532;13.348;2023-07-20T06:23:38;7.85;;;7.15;;
20861;SDS011;10591;52.532;13.348;2023-07-20T06:26:14;7.28;;;6.55;;
20861;SDS011;10591;52.532;13.348;2023-07-20T06:28:47;7.42;;;6.37;;
20861;SDS011;10591;52.532;13.348;2023-07-20T06:31:18;7.58;;;5.75;;
20861;SDS011;10591;52.532;13.348;2023-07-20T06:33:48;5.40;;;5.00;;
20861;SDS011;10591;52.532;13.348;2023-07-20T06:36:21;5.95;;;5.35;;
20861;SDS011;10591;52.532;13.348;2023-07-20T06:38:52;5.22;;;4.72;;
20861;SDS011;10591;52.532;13.348;2023-07-20T06:41:25;5.85;;;4.50;;
20861;SDS011;10591;52.532;13.348;2023-07-20T06:43:58;5.35;;;4.47;;
20861;SDS011;10591;52.532;13.348;2023-07-20T06:46:29;8.40;;;4.97;;
20861;SDS011;10591;52.532;13.348;2023-07-20T06:49:00;9.28;;;5.20;;
20861;SDS011;10591;52.532;13.348;2023-07-20T06:51:32;5.55;;;4.50;;
20861;SDS011;10591;52.532;13.348;2023-07-20T06:54:09;3.50;;;3.25;;
20861;SDS011;10591;52.532;13.348;2023-07-20T06:56:35;5.67;;;4.17;;
20861;SDS011;10591;52.532;13.348;2023-07-20T06:59:08;4.78;;;4.15;;
20861;SDS011;10591;52.532;13.348;2023-07-20T07:01:41;6.95;;;3.67;;
20861;SDS011;10591;52.532;13.348;2023-07-20T07:04:12;2.80;;;2.58;;
20861;SDS011;10591;52.532;13.348;2023-07-20T07:06:44;2.30;;;2.20;;
20861;SDS011;10591;52.532;13.348;2023-07-20T07:09:15;3.17;;;2.52;;
20861;SDS011;10591;52.532;13.348;2023-07-20T07:11:47;2.87;;;2.58;;
20861;SDS011;10591;52.532;13.348;2023-07-20T07:14:20;3.52;;;2.67;;
20861;SDS011;10591;52.532;13.348;2023-07-20T07:16:52;3.33;;;2.20;;
20861;SDS011;10591;52.532;13.348;2023-07-20T07:19:28;2.50;;;2.30;;
20861;SDS011;10591;52.532;13.348;2023-07-20T07:22:01;2.98;;;2.45;;
20861;SDS011;10591;52.532;13.348;2023-07-20T07:24:32;2.87;;;2.27;;
20861;SDS011;10591;52.532;13.348;2023-07-20T07:27:06;4.00;;;2.87;;
20861;SDS011;10591;52.532;13.348;2023-07-20T07:29:40;4.92;;;2.83;;
20861;SDS011;10591;52.532;13.348;2023-07-20T07:32:12;2.50;;;2.30;;
20861;SDS011;10591;52.532;13.348;2023-07-20T07:34:43;3.95;;;2.30;;
20861;SDS011;10591;52.532;13.348;2023-07-20T07:37:16;3.47;;;2.25;;
20861;SDS011;10591;52.532;13.348;2023-07-20T07:39:50;2.50;;;2.30;;
20861;SDS011;10591;52.532;13.348;2023-07-20T07:42:20;4.30;;;2.37;;
20861;SDS011;10591;52.532;13.348;2023-07-20T07:44:54;2.37;;;2.17;;
20861;SDS011;10591;52.532;13.348;2023-07-20T07:47:27;3.42;;;2.00;;
20861;SDS011;10591;52.532;13.348;2023-07-20T07:50:00;2.58;;;2.30;;
20861;SDS011;10591;52.532;13.348;2023-07-20T07:52:34;3.00;;;2.33;;
20861;SDS011;10591;52.532;13.348;2023-07-20T07:55:09;2.95;;;2.10;;
20861;SDS011;10591;52.532;13.348;2023-07-20T07:57:40;2.72;;;2.33;;
20861;SDS011;10591;52.532;13.348;2023-07-20T08:00:11;2.52;;;2.08;;
20861;SDS011;10591;52.532;13.348;2023-07-20T08:02:49;3.00;;;1.87;;
20861;SDS011;10591;52.532;13.348;2023-07-20T08:05:18;1.70;;;1.60;;
20861;SDS011;10591;52.532;13.348;2023-07-20T08:07:51;2.02;;;1.60;;
20861;SDS011;10591;52.532;13.348;2023-07-20T08:10:23;1.87;;;1.70;;
20861;SDS011;10591;52.532;13.348;2023-07-20T08:12:54;1.90;;;1.80;;
20861;SDS011;10591;52.532;13.348;2023-07-20T08:15:25;3.22;;;1.80;;
20861;SDS011;10591;52.532;13.348;2023-07-20T08:17:56;3.02;;;1.85;;
20861;SDS011;10591;52.532;13.348;2023-07-20T08:20:31;2.22;;;2.02;;
20861;SDS011;10591;52.532;13.348;2023-07-20T08:23:05;1.92;;;1.60;;
20861;SDS011;10591;52.532;13.348;2023-07-20T08:25:37;4.92;;;1.90;;
20861;SDS011;10591;52.532;13.348;2023-07-20T08:28:13;1.67;;;1.57;;
20861;SDS011;10591;52.532;13.348;2023-07-20T08:30:46;1.65;;;1.45;;
20861;SDS011;10591;52.532;13.348;2023-07-20T08:33:18;2.25;;;1.40;;
20861;SDS011;10591;52.532;13.348;2023-07-20T08:35:52;1.82;;;1.37;;
20861;SDS011;10591;52.532;13.348;2023-07-20T08:38:26;1.90;;;1.40;;
20861;SDS011;10591;52.532;13.348;2023-07-20T08:40:57;2.25;;;1.40;;
20861;SDS011;10591;52.532;13.348;2023-07-20T08:43:29;1.50;;;1.40;;
20861;SDS011;10591;52.532;13.348;2023-07-20T08:46:02;1.52;;;1.30;;
20861;SDS011;10591;52.532;13.348;2023-07-20T08:48:35;2.10;;;1.62;;
20861;SDS011;10591;52.532;13.348;2023-07-20T08:51:07;2.55;;;1.30;;
20861;SDS011;10591;52.532;13.348;2023-07-20T08:53:41;3.62;;;1.67;;
20861;SDS011;10591;52.532;13.348;2023-07-20T08:56:15;1.52;;;1.42;;
20861;SDS011;10591;52.532;13.348;2023-07-20T08:58:48;1.17;;;1.17;;
20861;SDS011;10591;52.532;13.348;2023-07-20T09:01:21;1.40;;;1.30;;
20861;SDS011;10591;52.532;13.348;2023-07-20T09:03:54;1.85;;;1.30;;
20861;SDS011;10591;52.532;13.348;2023-07-20T09:06:26;1.10;;;1.10;;
20861;SDS011;10591;52.532;13.348;2023-07-20T09:09:00;1.40;;;1.30;;
20861;SDS011;10591;52.532;13.348;2023-07-20T09:11:32;1.30;;;1.20;;
20861;SDS011;10591;52.532;13.348;2023-07-20T09:14:06;1.50;;;1.37;;
20861;SDS011;10591;52.532;13.348;2023-07-20T09:16:47;1.32;;;1.27;;
20861;SDS011;10591;52.532;13.348;2023-07-20T09:19:21;1.50;;;1.40;;
20861;SDS011;10591;52.532;13.348;2023-07-20T09:21:55;1.72;;;1.40;;
20861;SDS011;10591;52.532;13.348;2023-07-20T09:24:29;3.22;;;1.70;;
20861;SDS011;10591;52.532;13.348;2023-07-20T09:27:02;3.25;;;1.22;;
20861;SDS011;10591;52.532;13.348;2023-07-20T09:29:34;1.22;;;1.20;;
20861;SDS011;10591;52.532;13.348;2023-07-20T09:32:07;1.20;;;1.20;;
20861;SDS011;10591;52.532;13.348;2023-07-20T09:34:39;1.57;;;1.35;;
20861;SDS011;10591;52.532;13.348;2023-07-20T09:37:12;1.72;;;1.52;;
20861;SDS011;10591;52.532;13.348;2023-07-20T09:39:45;3.15;;;1.92;;
20861;SDS011;10591;52.532;13.348;2023-07-20T09:42:21;4.28;;;1.95;;
20861;SDS011;10591;52.532;13.348;2023-07-20T09:44:56;3.12;;;1.72;;
20861;SDS011;10591;52.532;13.348;2023-07-20T09:47:27;3.10;;;1.67;;
20861;SDS011;10591;52.532;13.348;2023-07-20T09:49:58;2.27;;;1.72;;
20861;SDS011;10591;52.532;13.348;2023-07-20T09:52:31;4.05;;;1.70;;
20861;SDS011;10591;52.532;13.348;2023-07-20T09:55:03;2.20;;;1.60;;
20861;SDS011;10591;52.532;13.348;2023-07-20T09:57:36;1.90;;;1.80;;
20861;SDS011;10591;52.532;13.348;2023-07-20T10:00:07;1.98;;;1.50;;
20861;SDS011;10591;52.532;13.348;2023-07-20T10:02:44;2.77;;;2.33;;
20861;SDS011;10591;52.532;13.348;2023-07-20T10:05:16;2.92;;;1.90;;
20861;SDS011;10591;52.532;13.348;2023-07-20T10:07:48;2.67;;;1.90;;
20861;SDS011;10591;52.532;13.348;2023-07-20T10:10:21;2.02;;;1.82;;
20861;SDS011;10591;52.532;13.348;2023-07-20T10:12:53;2.50;;;1.82;;
20861;SDS011;10591;52.532;13.348;2023-07-20T10:15:25;3.37;;;1.90;;
20861;SDS011;10591;52.532;13.348;2023-07-20T10:18:18;2.02;;;1.90;;
20861;SDS011;10591;52.532;13.348;2023-07-20T10:20:55;2.12;;;1.90;;
20861;SDS011;10591;52.532;13.348;2023-07-20T10:23:29;2.67;;;2.17;;
20861;SDS011;10591;52.532;13.348;2023-07-20T10:26:00;2.25;;;1.77;;
20861;SDS011;10591;52.532;13.348;2023-07-20T10:28:35;2.25;;;2.05;;
20861;SDS011;10591;52.532;13.348;2023-07-20T10:31:09;2.85;;;1.77;;
20861;SDS011;10591;52.532;13.348;2023-07-20T10:33:42;2.25;;;2.05;;
20861;SDS011;10591;52.532;13.348;2023-07-20T10:36:15;2.27;;;2.12;;
20861;SDS011;10591;52.532;13.348;2023-07-20T10:41:29;2.55;;;1.85;;
20861;SDS011;10591;52.532;13.348;2023-07-20T10:44:04;2.20;;;2.00;;
20861;SDS011;10591;52.532;13.348;2023-07-20T10:46:44;2.55;;;1.77;;
20861;SDS011;10591;52.532;13.348;2023-07-20T10:49:15;2.55;;;1.85;;
20861;SDS011;10591;52.532;13.348;2023-07-20T10:51:48;2.87;;;2.00;;
20861;SDS011;10591;52.532;13.348;2023-07-20T10:56:56;1.70;;;1.57;;
20861;SDS011;10591;52.532;13.348;2023-07-20T11:02:06;2.33;;;1.85;;
20861;SDS011;10591;52.532;13.348;2023-07-20T11:04:41;2.37;;;1.75;;
20861;SDS011;10591;52.532;13.348;2023-07-20T11:07:16;2.15;;;1.98;;
20861;SDS011;10591;52.532;13.348;2023-07-20T11:09:49;2.58;;;1.85;;
20861;SDS011;10591;52.532;13.348;2023-07-20T11:12:22;1.82;;;1.70;;
20861;SDS011;10591;52.532;13.348;2023-07-20T11:14:58;1.70;;;1.60;;
20861;SDS011;10591;52.532;13.348;2023-07-20T11:17:33;2.45;;;1.77;;
20861;SDS011;10591;52.532;13.348;2023-07-20T11:20:01;2.40;;;2.20;;
20861;SDS011;10591;52.532;13.348;2023-07-20T11:22:36;2.22;;;2.02;;
20861;SDS011;10591;52.532;13.348;2023-07-20T11:25:09;1.90;;;1.80;;
20861;SDS011;10591;52.532;13.348;2023-07-20T11:27:46;3.08;;;2.00;;
20861;SDS011;10591;52.532;13.348;2023-07-20T11:30:16;1.80;;;1.70;;
20861;SDS011;10591;52.532;13.348;2023-07-20T11:32:51;2.00;;;1.70;;
20861;SDS011;10591;52.532;13.348;2023-07-20T11:35:22;1.80;;;1.60;;
20861;SDS011;10591;52.532;13.348;2023-07-20T11:37:55;1.92;;;1.70;;
20861;SDS011;10591;52.532;13.348;2023-07-20T11:40:25;2.20;;;1.70;;
20861;SDS011;10591;52.532;13.348;2023-07-20T11:42:58;1.65;;;1.55;;
20861;SDS011;10591;52.532;13.348;2023-07-20T11:45:30;1.85;;;1.50;;
20861;SDS011;10591;52.532;13.348;2023-07-20T11:48:02;1.90;;;1.50;;
20861;SDS011;10591;52.532;13.348;2023-07-20T11:50:38;1.77;;;1.37;;
20861;SDS011;10591;52.532;13.348;2023-07-20T11:53:09;3.62;;;1.30;;
20861;SDS011;10591;52.532;13.348;2023-07-20T11:55:41;2.40;;;1.50;;
20861;SDS011;10591;52.532;13.348;2023-07-20T11:58:12;2.75;;;1.77;;
20861;SDS011;10591;52.532;13.348;2023-07-20T12:00:44;1.65;;;1.55;;
20861;SDS011;10591;52.532;13.348;2023-07-20T12:03:15;3.60;;;1.55;;
20861;SDS011;10591;52.532;13.348;2023-07-20T12:05:52;1.77;;;1.35;;
20861;SDS011;10591;52.532;13.348;2023-07-20T12:08:25;1.40;;;1.35;;
20861;SDS011;10591;52.532;13.348;2023-07-20T12:10:56;1.50;;;1.40;;
20861;SDS011;10591;52.532;13.348;2023-07-20T12:13:40;2.47;;;1.60;;
20861;SDS011;10591;52.532;13.348;2023-07-20T12:16:09;1.62;;;1.52;;
20861;SDS011;10591;52.532;13.348;2023-07-20T12:18:44;2.52;;;1.40;;
20861;SDS011;10591;52.532;13.348;2023-07-20T12:21:17;4.45;;;1.50;;
20861;SDS011;10591;52.532;13.348;2023-07-20T12:23:49;1.42;;;1.32;;
20861;SDS011;10591;52.532;13.348;2023-07-20T12:26:21;1.90;;;1.57;;
20861;SDS011;10591;52.532;13.348;2023-07-20T12:28:53;1.30;;;1.20;;
20861;SDS011;10591;52.532;13.348;2023-07-20T12:31:26;1.50;;;1.40;;
20861;SDS011;10591;52.532;13.348;2023-07-20T12:34:01;1.65;;;1.50;;
20861;SDS011;10591;52.532;13.348;2023-07-20T12:36:32;2.42;;;1.55;;
20861;SDS011;10591;52.532;13.348;2023-07-20T12:39:03;1.57;;;1.47;;
20861;SDS011;10591;52.532;13.348;2023-07-20T12:41:35;2.00;;;1.90;;
20861;SDS011;10591;52.532;13.348;2023-07-20T12:44:06;2.17;;;1.32;;
20861;SDS011;10591;52.532;13.348;2023-07-20T12:46:37;2.58;;;1.55;;
20861;SDS011;10591;52.532;13.348;2023-07-20T12:49:09;2.33;;;1.77;;
20861;SDS011;10591;52.532;13.348;2023-07-20T12:51:40;1.60;;;1.50;;
20861;SDS011;10591;52.532;13.348;2023-07-20T12:54:12;4.37;;;1.77;;
20861;SDS011;10591;52.532;13.348;2023-07-20T12:56:43;1.95;;;1.85;;
20861;SDS011;10591;52.532;13.348;2023-07-20T12:59:16;1.37;;;1.27;;
20861;SDS011;10591;52.532;13.348;2023-07-20T13:01:51;1.30;;;1.30;;
20861;SDS011;10591;52.532;13.348;2023-07-20T13:04:21;1.37;;;1.27;;
20861;SDS011;10591;52.532;13.348;2023-07-20T13:06:56;1.57;;;1.47;;
20861;SDS011;10591;52.532;13.348;2023-07-20T13:09:29;1.70;;;1.57;;
20861;SDS011;10591;52.532;13.348;2023-07-20T13:12:01;1.55;;;1.30;;
20861;SDS011;10591;52.532;13.348;2023-07-20T13:14:33;2.10;;;1.90;;
20861;SDS011;10591;52.532;13.348;2023-07-20T13:17:05;1.57;;;1.47;;
20861;SDS011;10591;52.532;13.348;2023-07-20T13:19:39;1.90;;;1.22;;
20861;SDS011;10591;52.532;13.348;2023-07-20T13:22:13;1.57;;;1.47;;
20861;SDS011;10591;52.532;13.348;2023-07-20T13:24:45;2.35;;;1.57;;
20861;SDS011;10591;52.532;13.348;2023-07-20T13:27:18;2.50;;;1.52;;
20861;SDS011;10591;52.532;13.348;2023-07-20T13:29:50;2.08;;;1.95;;
20861;SDS011;10591;52.532;13.348;2023-07-20T13:32:25;1.70;;;1.30;;
20861;SDS011;10591;52.532;13.348;2023-07-20T13:35:00;1.50;;;1.40;;
20861;SDS011;10591;52.532;13.348;2023-07-20T13:37:31;2.20;;;2.00;;
20861;SDS011;10591;52.532;13.348;2023-07-20T13:40:02;1.87;;;1.40;;
20861;SDS011;10591;52.532;13.348;2023-07-20T13:42:36;1.70;;;1.60;;
20861;SDS011;10591;52.532;13.348;2023-07-20T13:45:07;1.50;;;1.40;;
20861;SDS011;10591;52.532;13.348;2023-07-20T13:47:38;1.50;;;1.40;;
20861;SDS011;10591;52.532;13.348;2023-07-20T13:50:12;1.20;;;1.20;;
20861;SDS011;10591;52.532;13.348;2023-07-20T13:52:46;1.50;;;1.40;;
20861;SDS011;10591;52.532;13.348;2023-07-20T13:55:17;1.50;;;1.40;;
20861;SDS011;10591;52.532;13.348;2023-07-20T13:57:56;2.62;;;1.40;;
20861;SDS011;10591;52.532;13.348;2023-07-20T14:00:27;4.55;;;1.50;;
20861;SDS011;10591;52.532;13.348;2023-07-20T14:02:59;1.65;;;1.50;;
20861;SDS011;10591;52.532;13.348;2023-07-20T14:05:31;2.98;;;1.40;;
20861;SDS011;10591;52.532;13.348;2023-07-20T14:08:07;1.87;;;1.30;;
20861;SDS011;10591;52.532;13.348;2023-07-20T14:10:38;1.52;;;1.42;;
20861;SDS011;10591;52.532;13.348;2023-07-20T14:13:11;3.15;;;1.45;;
20861;SDS011;10591;52.532;13.348;2023-07-20T14:15:41;1.40;;;1.30;;
20861;SDS011;10591;52.532;13.348;2023-07-20T14:18:14;1.65;;;1.47;;
20861;SDS011;10591;52.532;13.348;2023-07-20T14:20:49;3.50;;;1.75;;
20861;SDS011;10591;52.532;13.348;2023-07-20T14:23:21;2.20;;;2.00;;
20861;SDS011;10591;52.532;13.348;2023-07-20T14:25:54;1.70;;;1.60;;
20861;SDS011;10591;52.532;13.348;2023-07-20T14:28:27;1.57;;;1.47;;
20861;SDS011;10591;52.532;13.348;2023-07-20T14:30:57;1.80;;;1.70;;
20861;SDS011;10591;52.532;13.348;2023-07-20T14:33:28;3.62;;;1.60;;
20861;SDS011;10591;52.532;13.348;2023-07-20T14:36:02;2.47;;;1.42;;
20861;SDS011;10591;52.532;13.348;2023-07-20T14:38:34;1.60;;;1.50;;
20861;SDS011;10591;52.532;13.348;2023-07-20T14:41:07;1.52;;;1.42;;
20861;SDS011;10591;52.532;13.348;2023-07-20T14:43:44;1.50;;;1.40;;
20861;SDS011;10591;52.532;13.348;2023-07-20T14:46:16;2.80;;;2.12;;
20861;SDS011;10591;52.532;13.348;2023-07-20T14:48:52;2.10;;;1.90;;
20861;SDS011;10591;52.532;13.348;2023-07-20T14:51:28;1.95;;;1.85;;
20861;SDS011;10591;52.532;13.348;2023-07-20T14:54:06;1.50;;;1.40;;
20861;SDS011;10591;52.532;13.348;2023-07-20T14:56:39;1.50;;;1.17;;
20861;SDS011;10591;52.532;13.348;2023-07-20T14:59:15;1.40;;;1.30;;
20861;SDS011;10591;52.532;13.348;2023-07-20T15:01:46;2.12;;;1.37;;
20861;SDS011;10591;52.532;13.348;2023-07-20T15:04:21;1.82;;;1.62;;
20861;SDS011;10591;52.532;13.348;2023-07-20T15:06:54;3.40;;;1.40;;
20861;SDS011;10591;52.532;13.348;2023-07-20T15:09:28;1.35;;;1.10;;
20861;SDS011;10591;52.532;13.348;2023-07-20T15:11:59;1.85;;;1.30;;
20861;SDS011;10591;52.532;13.348;2023-07-20T15:14:31;1.50;;;1.40;;
20861;SDS011;10591;52.532;13.348;2023-07-20T15:17:02;1.50;;;1.40;;
20861;SDS011;10591;52.532;13.348;2023-07-20T15:19:33;1.82;;;1.40;;